createdAt,value
2017-12-06T00:02:26.025Z,6.50
2017-12-06T00:04:53.532Z,6.50
2017-12-06T00:07:21.122Z,6.50
2017-12-06T00:09:49.407Z,6.50
2017-12-06T00:12:22.677Z,6.50
2017-12-06T00:14:55.853Z,6.50
2017-12-06T00:17:23.400Z,6.50
2017-12-06T00:19:50.884Z,6.60
2017-12-06T00:22:18.380Z,6.60
2017-12-06T00:24:45.916Z,6.60
2017-12-06T00:27:14.178Z,6.50
2017-12-06T00:29:41.674Z,6.50
2017-12-06T00:32:09.186Z,6.50
2017-12-06T00:34:36.676Z,6.60
2017-12-06T00:37:04.196Z,6.60
2017-12-06T00:39:31.687Z,6.60
2017-12-06T00:41:59.210Z,6.60
2017-12-06T00:44:26.707Z,6.60
2017-12-06T00:46:54.223Z,6.60
2017-12-06T00:49:21.735Z,6.60
2017-12-06T00:51:49.225Z,6.60
2017-12-06T00:54:16.739Z,6.60
2017-12-06T00:56:44.250Z,6.60
2017-12-06T00:59:11.756Z,6.60
2017-12-06T01:01:39.262Z,6.70
2017-12-06T01:04:06.785Z,6.70
2017-12-06T01:06:34.268Z,6.60
2017-12-06T01:09:01.757Z,6.60
2017-12-06T01:11:30.043Z,6.50
2017-12-06T01:13:58.292Z,6.50
2017-12-06T01:16:25.800Z,6.50
2017-12-06T01:18:53.288Z,6.50
2017-12-06T01:21:20.809Z,6.60
2017-12-06T01:23:48.296Z,6.60
2017-12-06T01:26:15.854Z,6.60
2017-12-06T01:28:43.342Z,6.60
2017-12-06T01:31:10.878Z,6.60
2017-12-06T01:33:38.371Z,6.60
2017-12-06T01:36:06.621Z,6.70
2017-12-06T01:38:34.132Z,6.60
2017-12-06T01:41:01.664Z,6.60
2017-12-06T01:43:29.932Z,6.60
2017-12-06T01:45:58.190Z,6.60
2017-12-06T01:48:25.705Z,6.60
2017-12-06T01:50:53.220Z,6.60
2017-12-06T01:53:21.538Z,6.60
2017-12-06T01:55:49.046Z,6.60
2017-12-06T01:58:16.542Z,6.60
2017-12-06T02:00:44.089Z,6.50
2017-12-06T02:03:11.590Z,6.60
2017-12-06T02:05:39.092Z,6.50
2017-12-06T02:08:06.618Z,6.50
2017-12-06T02:10:34.109Z,6.50
2017-12-06T02:13:02.404Z,6.40
2017-12-06T02:15:29.897Z,6.40
2017-12-06T02:17:57.400Z,6.50
2017-12-06T02:20:25.688Z,6.40
2017-12-06T02:22:53.184Z,6.40
2017-12-06T02:25:20.713Z,6.40
2017-12-06T02:27:48.253Z,6.40
2017-12-06T02:30:15.788Z,6.40
2017-12-06T02:32:44.071Z,6.40
2017-12-06T02:35:12.343Z,6.40
2017-12-06T02:37:40.676Z,6.40
2017-12-06T02:40:20.012Z,6.40
2017-12-06T02:42:59.432Z,6.40
2017-12-06T02:45:27.779Z,6.40
2017-12-06T02:47:56.055Z,6.40
2017-12-06T02:50:25.500Z,6.40
2017-12-06T02:52:53.052Z,6.40
2017-12-06T02:55:20.560Z,6.40
2017-12-06T02:57:48.889Z,6.40
2017-12-06T03:00:16.392Z,6.30
2017-12-06T03:02:44.715Z,6.40
2017-12-06T03:05:12.229Z,6.30
2017-12-06T03:07:40.493Z,6.30
2017-12-06T03:10:08.792Z,6.30
2017-12-06T03:12:37.046Z,6.20
2017-12-06T03:15:04.548Z,6.30
2017-12-06T03:17:32.076Z,6.30
2017-12-06T03:20:00.347Z,6.20
2017-12-06T03:22:28.604Z,6.20
2017-12-06T03:24:56.125Z,6.20
2017-12-06T03:27:23.621Z,6.20
2017-12-06T03:29:51.140Z,6.20
2017-12-06T03:32:18.660Z,6.20
2017-12-06T03:34:46.925Z,6.20
2017-12-06T03:37:15.217Z,6.20
2017-12-06T03:39:42.716Z,6.20
2017-12-06T03:42:10.231Z,6.20
2017-12-06T03:44:37.750Z,6.20
2017-12-06T03:47:05.241Z,6.30
2017-12-06T03:49:33.529Z,6.30
2017-12-06T03:52:01.032Z,6.30
2017-12-06T03:54:28.528Z,6.30
2017-12-06T03:56:56.808Z,6.40
2017-12-06T03:59:24.312Z,6.30
2017-12-06T04:01:51.831Z,6.30
2017-12-06T04:04:19.320Z,6.40
2017-12-06T04:06:46.838Z,6.40
2017-12-06T04:09:14.329Z,6.40
2017-12-06T04:11:41.817Z,6.50
2017-12-06T04:14:10.091Z,6.50
2017-12-06T04:16:37.591Z,6.50
2017-12-06T04:19:05.116Z,6.50
2017-12-06T04:21:33.381Z,6.50
2017-12-06T04:24:00.912Z,6.50
2017-12-06T04:26:28.408Z,6.50
2017-12-06T04:28:55.892Z,6.50
2017-12-06T04:31:23.406Z,6.60
2017-12-06T04:33:52.408Z,6.50
2017-12-06T04:36:21.427Z,6.50
2017-12-06T04:38:49.675Z,6.50
2017-12-06T04:41:17.204Z,6.50
2017-12-06T04:43:44.695Z,6.50
2017-12-06T04:46:12.957Z,6.40
2017-12-06T04:48:40.483Z,6.40
2017-12-06T04:51:07.975Z,6.40
2017-12-06T04:53:35.460Z,6.40
2017-12-06T04:56:03.759Z,6.40
2017-12-06T04:58:31.258Z,6.40
2017-12-06T05:00:58.752Z,6.40
2017-12-06T05:03:27.028Z,6.40
2017-12-06T05:05:54.568Z,6.40
2017-12-06T05:08:22.867Z,6.40
2017-12-06T05:10:50.357Z,6.40
2017-12-06T05:13:17.872Z,6.40
2017-12-06T05:15:46.136Z,6.40
2017-12-06T05:18:14.420Z,6.30
2017-12-06T05:20:42.695Z,6.30
2017-12-06T05:23:10.985Z,6.40
2017-12-06T05:25:38.500Z,6.40
2017-12-06T05:28:06.004Z,6.30
2017-12-06T05:30:33.501Z,6.30
2017-12-06T05:33:01.017Z,6.40
2017-12-06T05:35:28.504Z,6.40
2017-12-06T05:37:56.024Z,6.40
2017-12-06T05:40:23.536Z,6.40
2017-12-06T05:42:51.033Z,6.50
2017-12-06T05:45:18.552Z,6.50
2017-12-06T05:47:46.087Z,6.50
2017-12-06T05:50:13.599Z,6.50
2017-12-06T05:52:41.872Z,6.50
2017-12-06T05:55:10.169Z,6.60
2017-12-06T05:57:37.656Z,6.60
2017-12-06T06:00:05.144Z,6.60
2017-12-06T06:02:32.664Z,6.60
2017-12-06T06:05:00.148Z,6.60
2017-12-06T06:07:27.648Z,6.50
2017-12-06T06:09:55.140Z,6.60
2017-12-06T06:12:23.339Z,6.60
2017-12-06T06:14:50.824Z,6.60
2017-12-06T06:17:19.089Z,6.60
2017-12-06T06:19:47.367Z,6.60
2017-12-06T06:22:15.617Z,6.60
2017-12-06T06:24:43.127Z,6.60
2017-12-06T06:27:10.621Z,6.70
2017-12-06T06:29:38.155Z,6.60
2017-12-06T06:32:05.672Z,6.60
2017-12-06T06:34:33.938Z,6.60
2017-12-06T06:37:01.455Z,6.60
2017-12-06T06:39:28.986Z,6.60
2017-12-06T06:41:56.512Z,6.60
2017-12-06T06:44:24.027Z,6.60
2017-12-06T06:46:51.513Z,6.60
2017-12-06T06:49:19.046Z,6.50
2017-12-06T06:51:46.537Z,6.50
2017-12-06T06:54:14.024Z,6.50
2017-12-06T06:56:41.547Z,6.50
2017-12-06T06:59:09.069Z,6.50
2017-12-06T07:01:36.644Z,6.50
2017-12-06T07:04:04.139Z,6.50
2017-12-06T07:06:32.425Z,6.50
2017-12-06T07:09:00.678Z,6.60
2017-12-06T07:11:28.191Z,6.60
2017-12-06T07:13:55.704Z,6.60
2017-12-06T07:16:23.969Z,6.60
2017-12-06T07:18:52.270Z,6.60
2017-12-06T07:21:19.766Z,6.60
2017-12-06T07:23:47.300Z,6.60
2017-12-06T07:26:14.811Z,6.60
2017-12-06T07:28:42.300Z,6.70
2017-12-06T07:31:09.824Z,6.70
2017-12-06T07:33:37.312Z,6.70
2017-12-06T07:36:04.824Z,6.70
2017-12-06T07:38:32.335Z,6.70
2017-12-06T07:40:59.828Z,6.70
2017-12-06T07:43:27.364Z,6.70
2017-12-06T07:45:54.856Z,6.70
2017-12-06T07:48:22.400Z,6.70
2017-12-06T07:50:49.897Z,6.70
2017-12-06T07:53:18.146Z,6.70
2017-12-06T07:55:45.750Z,6.70
2017-12-06T07:58:18.927Z,6.70
2017-12-06T08:00:47.221Z,6.70
2017-12-06T08:03:14.731Z,6.70
2017-12-06T08:05:42.251Z,6.70
2017-12-06T08:08:09.755Z,6.70
2017-12-06T08:10:37.258Z,6.70
2017-12-06T08:13:04.783Z,6.70
2017-12-06T08:15:32.285Z,6.70
2017-12-06T08:17:59.800Z,6.70
2017-12-06T08:20:28.067Z,6.70
2017-12-06T08:22:55.570Z,6.70
2017-12-06T08:25:23.096Z,6.70
2017-12-06T08:27:51.368Z,6.80
2017-12-06T08:30:19.671Z,6.80
2017-12-06T08:32:47.184Z,6.80
2017-12-06T08:35:14.692Z,6.80
2017-12-06T08:37:42.212Z,6.80
2017-12-06T08:40:09.721Z,6.80
2017-12-06T08:42:37.281Z,6.80
2017-12-06T08:45:04.780Z,6.80
2017-12-06T08:47:32.294Z,6.90
2017-12-06T08:49:59.849Z,6.90
2017-12-06T08:52:27.349Z,6.90
2017-12-06T08:54:54.836Z,6.80
2017-12-06T08:57:22.341Z,6.80
2017-12-06T08:59:49.831Z,6.70
2017-12-06T09:02:18.123Z,6.70
2017-12-06T09:04:45.628Z,6.70
2017-12-06T09:07:13.168Z,6.80
2017-12-06T09:09:41.524Z,6.80
2017-12-06T09:12:09.009Z,6.80
2017-12-06T09:14:36.527Z,6.70
2017-12-06T09:17:04.027Z,6.70
2017-12-06T09:19:31.516Z,6.70
2017-12-06T09:21:59.021Z,6.80
2017-12-06T09:24:26.515Z,6.80
2017-12-06T09:26:54.064Z,6.80
2017-12-06T09:29:21.556Z,6.80
2017-12-06T09:31:49.836Z,6.70
2017-12-06T09:34:18.122Z,6.70
2017-12-06T09:36:45.618Z,6.60
2017-12-06T09:39:13.151Z,6.70
2017-12-06T09:41:40.698Z,6.70
2017-12-06T09:44:08.191Z,6.70
2017-12-06T09:46:35.681Z,6.80
2017-12-06T09:49:03.189Z,6.80
2017-12-06T09:51:30.685Z,6.80
2017-12-06T09:53:58.297Z,6.80
2017-12-06T09:56:25.792Z,6.80
2017-12-06T09:58:53.321Z,6.80
2017-12-06T10:01:20.816Z,6.80
2017-12-06T10:03:48.304Z,6.90
2017-12-06T10:06:16.605Z,6.90
2017-12-06T10:08:44.097Z,6.90
2017-12-06T10:11:11.624Z,7.00
2017-12-06T10:13:39.147Z,7.00
2017-12-06T10:16:07.411Z,7.00
2017-12-06T10:18:34.913Z,7.00
2017-12-06T10:21:02.429Z,6.80
2017-12-06T10:23:30.686Z,6.80
2017-12-06T10:25:58.205Z,6.80
2017-12-06T10:28:25.765Z,6.80
2017-12-06T10:30:53.276Z,6.80
2017-12-06T10:33:21.680Z,6.70
2017-12-06T10:35:49.189Z,6.70
2017-12-06T10:38:16.705Z,6.70
2017-12-06T10:40:44.198Z,6.70
2017-12-06T10:43:11.721Z,6.70
2017-12-06T10:45:39.238Z,6.70
2017-12-06T10:48:07.496Z,6.70
2017-12-06T10:50:35.787Z,6.70
2017-12-06T10:53:03.284Z,6.70
2017-12-06T10:55:30.817Z,6.80
2017-12-06T10:57:59.103Z,6.90
2017-12-06T11:00:26.599Z,6.90
2017-12-06T11:02:54.142Z,6.90
2017-12-06T11:05:21.650Z,6.90
2017-12-06T11:07:49.939Z,6.90
2017-12-06T11:10:18.223Z,6.90
2017-12-06T11:12:46.535Z,6.90
2017-12-06T11:15:14.083Z,6.90
2017-12-06T11:17:41.633Z,6.90
2017-12-06T11:20:09.140Z,7.00
2017-12-06T11:22:36.673Z,7.00
2017-12-06T11:25:04.208Z,7.00
2017-12-06T11:27:31.705Z,7.00
2017-12-06T11:29:59.216Z,7.00
2017-12-06T11:32:26.728Z,7.00
2017-12-06T11:34:54.248Z,7.10
2017-12-06T11:37:21.773Z,7.00
2017-12-06T11:39:50.048Z,7.00
2017-12-06T11:42:18.327Z,7.00
2017-12-06T11:44:46.625Z,7.00
2017-12-06T11:47:14.171Z,7.00
2017-12-06T11:49:41.664Z,7.00
2017-12-06T11:52:09.172Z,7.00
2017-12-06T11:54:37.450Z,7.00
2017-12-06T11:57:04.977Z,7.00
2017-12-06T11:59:32.477Z,7.00
2017-12-06T12:01:59.981Z,7.10
2017-12-06T12:04:29.033Z,7.10
2017-12-06T12:06:56.566Z,7.10
2017-12-06T12:09:24.836Z,7.10
2017-12-06T12:11:52.336Z,7.10
2017-12-06T12:14:19.886Z,7.10
2017-12-06T12:16:47.389Z,7.10
2017-12-06T12:19:14.929Z,7.10
2017-12-06T12:21:42.445Z,7.20
2017-12-06T12:24:09.949Z,7.20
2017-12-06T12:26:37.523Z,7.30
2017-12-06T12:29:05.024Z,7.30
2017-12-06T12:31:32.524Z,7.30
2017-12-06T12:34:00.833Z,7.40
2017-12-06T12:36:28.443Z,7.40
2017-12-06T12:38:55.949Z,7.40
2017-12-06T12:41:24.241Z,7.40
2017-12-06T12:43:51.796Z,7.40
2017-12-06T12:46:19.322Z,7.40
2017-12-06T12:48:46.822Z,7.40
2017-12-06T12:51:14.335Z,7.50
2017-12-06T12:53:42.612Z,7.50
2017-12-06T12:56:10.148Z,7.50
2017-12-06T12:58:37.637Z,7.50
2017-12-06T13:01:06.716Z,7.50
2017-12-06T13:03:34.257Z,7.50
2017-12-06T13:06:01.748Z,7.50
2017-12-06T13:08:30.054Z,7.60
2017-12-06T13:10:57.574Z,7.60
2017-12-06T13:13:25.721Z,7.60
2017-12-06T13:15:53.210Z,7.60
2017-12-06T13:18:21.473Z,7.60
2017-12-06T13:20:48.996Z,7.60
2017-12-06T13:23:16.551Z,7.60
2017-12-06T13:25:44.067Z,7.60
2017-12-06T13:28:12.341Z,7.70
2017-12-06T13:30:40.638Z,7.60
2017-12-06T13:33:08.179Z,7.60
2017-12-06T13:35:36.459Z,7.70
2017-12-06T13:38:03.961Z,7.70
2017-12-06T13:40:31.496Z,7.70
2017-12-06T13:42:59.001Z,7.70
2017-12-06T13:45:26.529Z,7.70
2017-12-06T13:47:54.031Z,7.70
2017-12-06T13:50:22.330Z,7.70
2017-12-06T13:52:49.841Z,7.70
2017-12-06T13:55:17.339Z,7.70
2017-12-06T13:57:44.863Z,7.70
2017-12-06T14:00:12.454Z,7.70
2017-12-06T14:02:40.000Z,7.70
2017-12-06T14:05:08.267Z,7.70
2017-12-06T14:07:36.546Z,7.70
2017-12-06T14:10:04.831Z,7.70
2017-12-06T14:12:33.114Z,7.60
2017-12-06T14:15:00.676Z,7.60
2017-12-06T14:17:28.188Z,7.60
2017-12-06T14:19:55.679Z,7.60
2017-12-06T14:22:23.969Z,7.60
2017-12-06T14:24:51.471Z,7.60
2017-12-06T14:27:19.001Z,7.60
2017-12-06T14:29:46.548Z,7.60
2017-12-06T14:32:14.797Z,7.60
2017-12-06T14:34:43.078Z,7.60
2017-12-06T14:37:11.380Z,7.60
2017-12-06T14:39:38.865Z,7.60
2017-12-06T14:42:06.372Z,7.60
2017-12-06T14:44:34.765Z,7.60
2017-12-06T14:47:02.268Z,7.60
2017-12-06T14:49:29.778Z,7.60
2017-12-06T14:51:57.328Z,7.60
2017-12-06T14:54:24.828Z,7.60
2017-12-06T14:56:52.335Z,7.60
2017-12-06T14:59:20.652Z,7.60
2017-12-06T15:01:48.171Z,7.60
2017-12-06T15:04:15.676Z,7.60
2017-12-06T15:06:43.161Z,7.60
2017-12-06T15:09:10.689Z,7.60
2017-12-06T15:11:38.179Z,7.70
2017-12-06T15:14:05.678Z,7.60
2017-12-06T15:16:33.213Z,7.60
2017-12-06T15:19:01.484Z,7.60
2017-12-06T15:21:29.753Z,7.60
2017-12-06T15:23:58.064Z,7.60
2017-12-06T15:26:25.613Z,7.60
2017-12-06T15:28:53.976Z,7.60
2017-12-06T15:31:22.248Z,7.60
2017-12-06T15:33:50.564Z,7.60
2017-12-06T15:36:18.060Z,7.60
2017-12-06T15:38:45.565Z,7.50
2017-12-06T15:41:13.109Z,7.60
2017-12-06T15:43:40.660Z,7.60
2017-12-06T15:46:08.178Z,7.60
2017-12-06T15:48:35.696Z,7.50
2017-12-06T15:51:03.228Z,7.50
2017-12-06T15:53:31.522Z,7.50
2017-12-06T15:55:59.136Z,7.50
2017-12-06T15:58:26.632Z,7.50
2017-12-06T16:00:54.142Z,7.50
2017-12-06T16:03:23.866Z,7.50
2017-12-06T16:05:51.384Z,7.40
2017-12-06T16:08:18.913Z,7.40
2017-12-06T16:10:46.406Z,7.40
2017-12-06T16:13:13.896Z,7.40
2017-12-06T16:15:41.450Z,7.40
2017-12-06T16:18:09.720Z,7.40
2017-12-06T16:20:37.288Z,7.30
2017-12-06T16:23:04.813Z,7.40
2017-12-06T16:25:32.293Z,7.40
2017-12-06T16:27:59.819Z,7.40
2017-12-06T16:30:27.319Z,7.30
2017-12-06T16:32:55.636Z,7.30
2017-12-06T16:35:35.107Z,7.30
2017-12-06T16:38:02.646Z,7.30
2017-12-06T16:40:30.165Z,7.20
2017-12-06T16:42:58.532Z,7.30
2017-12-06T16:45:26.813Z,7.30
2017-12-06T16:47:55.121Z,7.20
2017-12-06T16:50:22.634Z,7.20
2017-12-06T16:52:50.937Z,7.20
2017-12-06T16:55:18.472Z,7.20
2017-12-06T16:57:46.743Z,7.30
2017-12-06T17:00:15.074Z,7.30
2017-12-06T17:02:42.586Z,7.30
2017-12-06T17:05:10.853Z,7.20
2017-12-06T17:07:38.456Z,7.20
2017-12-06T17:10:05.956Z,7.20
2017-12-06T17:12:33.502Z,7.30
2017-12-06T17:15:01.011Z,7.20
2017-12-06T17:17:28.529Z,7.20
2017-12-06T17:19:56.089Z,7.10
2017-12-06T17:22:23.636Z,7.20
2017-12-06T17:24:51.140Z,7.20
2017-12-06T17:27:18.674Z,7.20
2017-12-06T17:29:58.901Z,7.80
2017-12-06T17:32:26.424Z,7.80
2017-12-06T17:34:53.921Z,8.10
2017-12-06T17:37:21.483Z,8.40
2017-12-06T17:39:48.990Z,8.60
2017-12-06T17:42:16.504Z,8.80
2017-12-06T17:44:44.892Z,8.90
2017-12-06T17:47:12.815Z,9.10
2017-12-06T17:49:40.344Z,9.20
2017-12-06T17:52:07.883Z,9.40
2017-12-06T17:54:36.187Z,9.60
2017-12-06T17:57:03.701Z,9.60
2017-12-06T17:59:31.215Z,9.70
2017-12-06T18:01:58.758Z,9.80
2017-12-06T18:04:26.358Z,9.60
2017-12-06T18:06:53.889Z,9.40
2017-12-06T18:09:21.391Z,9.20
2017-12-06T18:11:48.920Z,9.00
2017-12-06T18:14:16.441Z,8.80
2017-12-06T18:16:43.981Z,8.70
2017-12-06T18:19:12.237Z,8.40
2017-12-06T18:21:39.776Z,8.40
2017-12-06T18:24:07.332Z,8.30
2017-12-06T18:26:34.827Z,8.20
2017-12-06T18:29:03.172Z,8.00
2017-12-06T18:31:30.670Z,8.00
2017-12-06T18:33:58.947Z,7.80
2017-12-06T18:36:27.235Z,7.60
2017-12-06T18:38:54.752Z,7.60
2017-12-06T18:41:22.290Z,7.40
2017-12-06T18:43:49.797Z,7.30
2017-12-06T18:46:18.108Z,7.10
2017-12-06T18:48:45.605Z,7.00
2017-12-06T18:51:14.615Z,7.00
2017-12-06T18:53:42.169Z,7.00
2017-12-06T18:56:10.447Z,6.80
2017-12-06T18:58:38.747Z,6.80
2017-12-06T19:01:06.291Z,6.70
2017-12-06T19:03:34.559Z,6.60
2017-12-06T19:06:02.877Z,6.60
2017-12-06T19:08:30.380Z,6.60
2017-12-06T19:10:58.664Z,6.50
2017-12-06T19:13:26.981Z,6.50
2017-12-06T19:15:54.487Z,6.50
2017-12-06T19:18:22.777Z,6.40
2017-12-06T19:20:51.066Z,6.40
2017-12-06T19:23:18.567Z,6.40
2017-12-06T19:25:46.101Z,6.40
2017-12-06T19:28:13.637Z,6.30
2017-12-06T19:30:41.158Z,6.30
2017-12-06T19:33:08.689Z,6.30
2017-12-06T19:35:36.185Z,6.30
2017-12-06T19:38:04.502Z,6.30
2017-12-06T19:40:32.029Z,6.30
2017-12-06T19:43:00.333Z,6.30
2017-12-06T19:45:27.861Z,6.30
2017-12-06T19:47:56.128Z,6.20
2017-12-06T19:50:23.660Z,6.20
2017-12-06T19:52:51.225Z,6.20
2017-12-06T19:55:18.787Z,6.20
2017-12-06T19:57:46.287Z,6.10
2017-12-06T20:00:13.811Z,6.10
2017-12-06T20:02:41.333Z,6.10
2017-12-06T20:05:08.874Z,6.00
2017-12-06T20:07:36.412Z,6.00
2017-12-06T20:10:03.916Z,6.00
2017-12-06T20:12:31.460Z,6.00
2017-12-06T20:14:58.971Z,6.10
2017-12-06T20:17:27.248Z,6.00
2017-12-06T20:19:55.586Z,5.90
2017-12-06T20:22:23.099Z,5.90
2017-12-06T20:24:50.629Z,5.90
2017-12-06T20:27:18.953Z,5.80
2017-12-06T20:29:46.473Z,5.80
2017-12-06T20:32:14.787Z,5.80
2017-12-06T20:34:42.332Z,5.70
2017-12-06T20:37:09.885Z,5.70
2017-12-06T20:39:37.401Z,5.70
2017-12-06T20:42:05.005Z,5.70
2017-12-06T20:44:32.584Z,5.70
2017-12-06T20:47:00.103Z,5.70
2017-12-06T20:49:28.389Z,5.60
2017-12-06T20:51:55.892Z,5.60
2017-12-06T20:54:23.441Z,5.50
2017-12-06T20:56:50.947Z,5.50
2017-12-06T20:59:19.215Z,5.40
2017-12-06T21:01:46.755Z,5.30
2017-12-06T21:04:14.256Z,5.40
2017-12-06T21:06:41.813Z,5.40
2017-12-06T21:09:09.322Z,5.50
2017-12-06T21:11:36.825Z,5.50
2017-12-06T21:14:04.440Z,5.60
2017-12-06T21:16:31.951Z,5.60
2017-12-06T21:18:59.465Z,5.50
2017-12-06T21:21:27.010Z,5.60
2017-12-06T21:23:54.524Z,5.50
2017-12-06T21:26:22.063Z,5.50
2017-12-06T21:28:50.355Z,5.50
2017-12-06T21:31:17.879Z,5.50
2017-12-06T21:33:45.423Z,5.50
2017-12-06T21:36:12.933Z,5.40
2017-12-06T21:38:40.471Z,5.30
2017-12-06T21:41:08.761Z,5.30
2017-12-06T21:43:36.370Z,5.20
2017-12-06T21:46:03.869Z,5.30
2017-12-06T21:48:32.184Z,5.20
2017-12-06T21:50:59.685Z,5.20
2017-12-06T21:53:27.949Z,5.20
2017-12-06T21:55:55.486Z,5.10
2017-12-06T21:58:23.002Z,5.10
2017-12-06T22:00:50.524Z,5.10
2017-12-06T22:03:18.034Z,5.00
2017-12-06T22:05:45.549Z,5.00
2017-12-06T22:08:13.839Z,5.00
2017-12-06T22:10:42.108Z,5.10
2017-12-06T22:13:10.428Z,5.00
2017-12-06T22:15:37.932Z,5.00
2017-12-06T22:18:06.240Z,5.00
2017-12-06T22:20:33.748Z,5.00
2017-12-06T22:23:01.256Z,5.00
2017-12-06T22:25:28.793Z,5.00
2017-12-06T22:27:56.306Z,5.00
2017-12-06T22:30:23.843Z,5.00
2017-12-06T22:32:51.355Z,4.90
2017-12-06T22:35:19.654Z,4.90
2017-12-06T22:37:47.177Z,4.90
2017-12-06T22:40:14.736Z,4.90
2017-12-06T22:42:42.240Z,4.80
2017-12-06T22:45:15.826Z,4.80
2017-12-06T22:47:43.349Z,4.60
2017-12-06T22:50:10.862Z,4.50
2017-12-06T22:52:38.363Z,4.40
2017-12-06T22:55:05.888Z,4.40
2017-12-06T22:57:33.429Z,4.40
2017-12-06T23:00:00.954Z,4.30
2017-12-06T23:02:29.247Z,4.40
2017-12-06T23:04:56.773Z,4.40
2017-12-06T23:07:25.080Z,4.30
2017-12-06T23:09:52.594Z,4.30
2017-12-06T23:12:20.126Z,4.30
2017-12-06T23:14:47.628Z,4.30
2017-12-06T23:17:15.156Z,4.30
2017-12-06T23:19:42.676Z,4.20
2017-12-06T23:22:10.228Z,4.30
2017-12-06T23:24:37.759Z,4.20
2017-12-06T23:27:06.028Z,4.10
2017-12-06T23:29:33.564Z,4.10
2017-12-06T23:32:01.084Z,4.10
2017-12-06T23:34:28.616Z,4.00
2017-12-06T23:36:56.885Z,4.10
2017-12-06T23:39:25.153Z,4.20
2017-12-06T23:41:52.742Z,4.10
2017-12-06T23:44:20.253Z,4.10
2017-12-06T23:46:47.753Z,4.10
2017-12-06T23:49:16.073Z,4.10
2017-12-06T23:51:43.593Z,4.10
2017-12-06T23:54:11.127Z,4.00
2017-12-06T23:56:39.480Z,4.00
2017-12-06T23:59:07.017Z,3.90
